sensor_id;sensor_type;location;lat;lon;timestamp;temperature;humidity
73833;SHT30;62179;48.444;-4.464;2022-12-10T11:54:44;7.46;66.74
73833;SHT30;62179;48.444;-4.464;2022-12-10T12:06:20;7.40;67.45
73833;SHT30;62179;48.444;-4.464;2022-12-10T12:14:38;7.33;67.62
73833;SHT30;62179;48.444;-4.464;2022-12-10T12:17:23;7.33;67.60
73833;SHT30;62179;48.444;-4.464;2022-12-10T12:19:53;7.33;67.92
73833;SHT30;62179;48.444;-4.464;2022-12-10T12:22:43;7.30;66.98
73833;SHT30;62179;48.444;-4.464;2022-12-10T12:25:22;7.29;67.04
73833;SHT30;62179;48.444;-4.464;2022-12-10T12:27:55;7.30;67.51
73833;SHT30;62179;48.444;-4.464;2022-12-10T12:30:22;7.31;68.23
73833;SHT30;62179;48.444;-4.464;2022-12-10T12:33:05;7.36;69.93
73833;SHT30;62179;48.444;-4.464;2022-12-10T12:35:53;7.29;67.93
73833;SHT30;62179;48.444;-4.464;2022-12-10T12:38:52;7.29;67.68
73833;SHT30;62179;48.444;-4.464;2022-12-10T12:43:58;7.24;66.93
73833;SHT30;62179;48.444;-4.464;2022-12-10T12:46:44;7.22;67.82
73833;SHT30;62179;48.444;-4.464;2022-12-10T12:52:12;7.15;65.98
73833;SHT30;62179;48.444;-4.464;2022-12-10T12:54:53;7.10;66.24
73833;SHT30;62179;48.444;-4.464;2022-12-10T12:57:30;7.03;66.41
73833;SHT30;62179;48.444;-4.464;2022-12-10T13:00:19;7.02;67.04
73833;SHT30;62179;48.444;-4.464;2022-12-10T13:03:34;7.05;66.89
73833;SHT30;62179;48.444;-4.464;2022-12-10T13:06:30;7.05;66.71
73833;SHT30;62179;48.444;-4.464;2022-12-10T13:09:47;7.00;66.59
73833;SHT30;62179;48.444;-4.464;2022-12-10T13:12:48;7.02;66.71
73833;SHT30;62179;48.444;-4.464;2022-12-10T13:15:37;7.02;67.36
73833;SHT30;62179;48.444;-4.464;2022-12-10T13:20:44;7.16;67.10
73833;SHT30;62179;48.444;-4.464;2022-12-10T13:36:13;7.20;65.27
73833;SHT30;62179;48.444;-4.464;2022-12-10T13:45:05;7.15;66.02
73833;SHT30;62179;48.444;-4.464;2022-12-10T13:47:48;7.13;66.01
73833;SHT30;62179;48.444;-4.464;2022-12-10T13:50:16;7.15;66.32
73833;SHT30;62179;48.444;-4.464;2022-12-10T13:53:03;7.13;65.70
73833;SHT30;62179;48.444;-4.464;2022-12-10T13:55:38;7.10;65.45
73833;SHT30;62179;48.444;-4.464;2022-12-10T13:58:31;7.10;66.73
73833;SHT30;62179;48.444;-4.464;2022-12-10T14:06:51;7.16;65.89
73833;SHT30;62179;48.444;-4.464;2022-12-10T14:09:37;7.16;64.80
73833;SHT30;62179;48.444;-4.464;2022-12-10T14:12:18;7.16;65.28
73833;SHT30;62179;48.444;-4.464;2022-12-10T14:15:06;7.12;65.75
73833;SHT30;62179;48.444;-4.464;2022-12-10T14:17:37;7.10;66.92
73833;SHT30;62179;48.444;-4.464;2022-12-10T14:20:06;7.06;67.34
73833;SHT30;62179;48.444;-4.464;2022-12-10T14:22:44;7.06;67.87
73833;SHT30;62179;48.444;-4.464;2022-12-10T14:25:14;7.06;68.48
73833;SHT30;62179;48.444;-4.464;2022-12-10T14:27:40;7.08;69.33
73833;SHT30;62179;48.444;-4.464;2022-12-10T14:30:22;7.05;69.77
73833;SHT30;62179;48.444;-4.464;2022-12-10T14:32:55;7.06;70.05
73833;SHT30;62179;48.444;-4.464;2022-12-10T14:35:28;7.02;70.21
73833;SHT30;62179;48.444;-4.464;2022-12-10T14:37:57;7.02;70.30
73833;SHT30;62179;48.444;-4.464;2022-12-10T14:40:38;6.98;71.08
73833;SHT30;62179;48.444;-4.464;2022-12-10T14:43:07;6.93;71.52
73833;SHT30;62179;48.444;-4.464;2022-12-10T14:45:43;6.93;71.52
73833;SHT30;62179;48.444;-4.464;2022-12-10T14:48:13;6.92;71.81
73833;SHT30;62179;48.444;-4.464;2022-12-10T14:50:47;6.89;72.06
73833;SHT30;62179;48.444;-4.464;2022-12-10T14:53:23;6.87;72.13
73833;SHT30;62179;48.444;-4.464;2022-12-10T14:56:34;6.78;72.69
73833;SHT30;62179;48.444;-4.464;2022-12-10T14:59:24;6.77;72.92
73833;SHT30;62179;48.444;-4.464;2022-12-10T15:01:57;6.75;72.88
73833;SHT30;62179;48.444;-4.464;2022-12-10T15:04:56;6.77;73.17
73833;SHT30;62179;48.444;-4.464;2022-12-10T15:07:42;6.77;72.90
73833;SHT30;62179;48.444;-4.464;2022-12-10T15:10:25;6.71;73.33
73833;SHT30;62179;48.444;-4.464;2022-12-10T15:13:46;6.71;72.85
73833;SHT30;62179;48.444;-4.464;2022-12-10T15:16:42;6.67;73.89
73833;SHT30;62179;48.444;-4.464;2022-12-10T15:19:34;6.64;73.92
73833;SHT30;62179;48.444;-4.464;2022-12-10T15:22:20;6.67;74.54
73833;SHT30;62179;48.444;-4.464;2022-12-10T15:24:50;6.64;74.73
73833;SHT30;62179;48.444;-4.464;2022-12-10T15:27:35;6.74;74.31
73833;SHT30;62179;48.444;-4.464;2022-12-10T15:30:25;6.77;74.48
73833;SHT30;62179;48.444;-4.464;2022-12-10T15:32:56;6.81;76.36
73833;SHT30;62179;48.444;-4.464;2022-12-10T15:35:22;6.85;75.12
73833;SHT30;62179;48.444;-4.464;2022-12-10T15:37:51;6.87;75.53
73833;SHT30;62179;48.444;-4.464;2022-12-10T15:42:48;6.91;75.75
73833;SHT30;62179;48.444;-4.464;2022-12-10T15:47:48;6.91;76.13
73833;SHT30;62179;48.444;-4.464;2022-12-10T15:50:14;6.89;76.42
73833;SHT30;62179;48.444;-4.464;2022-12-10T15:52:39;6.87;77.24
73833;SHT30;62179;48.444;-4.464;2022-12-10T15:55:05;6.85;76.74
73833;SHT30;62179;48.444;-4.464;2022-12-10T15:57:36;6.87;76.87
73833;SHT30;62179;48.444;-4.464;2022-12-10T16:00:06;6.82;77.79
73833;SHT30;62179;48.444;-4.464;2022-12-10T16:02:55;6.81;78.07
73833;SHT30;62179;48.444;-4.464;2022-12-10T16:05:33;6.79;76.58
73833;SHT30;62179;48.444;-4.464;2022-12-10T16:08:03;6.81;77.79
73833;SHT30;62179;48.444;-4.464;2022-12-10T16:10:32;6.77;77.67
73833;SHT30;62179;48.444;-4.464;2022-12-10T16:13:05;6.72;77.73
73833;SHT30;62179;48.444;-4.464;2022-12-10T16:16:13;6.71;77.62
73833;SHT30;62179;48.444;-4.464;2022-12-10T16:18:32;6.65;76.65
73833;SHT30;62179;48.444;-4.464;2022-12-10T16:20:57;6.64;76.56
73833;SHT30;62179;48.444;-4.464;2022-12-10T16:23:23;6.64;76.31
73833;SHT30;62179;48.444;-4.464;2022-12-10T16:25:49;6.61;76.70
73833;SHT30;62179;48.444;-4.464;2022-12-10T16:28:20;6.58;76.69
73833;SHT30;62179;48.444;-4.464;2022-12-10T16:30:51;6.55;77.23
73833;SHT30;62179;48.444;-4.464;2022-12-10T16:33:18;6.51;76.71
73833;SHT30;62179;48.444;-4.464;2022-12-10T16:35:46;6.44;77.26
73833;SHT30;62179;48.444;-4.464;2022-12-10T16:38:12;6.40;77.50
73833;SHT30;62179;48.444;-4.464;2022-12-10T16:40:40;6.34;77.78
73833;SHT30;62179;48.444;-4.464;2022-12-10T16:43:17;6.24;77.94
73833;SHT30;62179;48.444;-4.464;2022-12-10T16:45:43;6.17;77.96
73833;SHT30;62179;48.444;-4.464;2022-12-10T16:48:09;6.11;77.95
73833;SHT30;62179;48.444;-4.464;2022-12-10T16:50:34;6.06;77.98
73833;SHT30;62179;48.444;-4.464;2022-12-10T16:53:05;6.03;78.05
73833;SHT30;62179;48.444;-4.464;2022-12-10T16:55:33;5.98;78.39
73833;SHT30;62179;48.444;-4.464;2022-12-10T16:57:58;6.03;77.79
73833;SHT30;62179;48.444;-4.464;2022-12-10T17:00:24;6.02;78.19
73833;SHT30;62179;48.444;-4.464;2022-12-10T17:02:51;5.96;78.04
73833;SHT30;62179;48.444;-4.464;2022-12-10T17:05:24;5.95;78.16
73833;SHT30;62179;48.444;-4.464;2022-12-10T17:07:51;5.95;77.94
73833;SHT30;62179;48.444;-4.464;2022-12-10T17:10:16;5.95;77.68
73833;SHT30;62179;48.444;-4.464;2022-12-10T17:12:42;5.93;77.67
73833;SHT30;62179;48.444;-4.464;2022-12-10T17:15:13;5.95;77.51
73833;SHT30;62179;48.444;-4.464;2022-12-10T17:17:39;5.86;77.64
73833;SHT30;62179;48.444;-4.464;2022-12-10T17:20:30;5.80;77.40
73833;SHT30;62179;48.444;-4.464;2022-12-10T17:22:56;5.76;77.79
73833;SHT30;62179;48.444;-4.464;2022-12-10T17:25:24;5.73;78.08
73833;SHT30;62179;48.444;-4.464;2022-12-10T17:27:50;5.69;78.07
73833;SHT30;62179;48.444;-4.464;2022-12-10T17:30:15;5.65;77.91
73833;SHT30;62179;48.444;-4.464;2022-12-10T17:32:42;5.66;78.15
73833;SHT30;62179;48.444;-4.464;2022-12-10T17:35:08;5.59;78.39
73833;SHT30;62179;48.444;-4.464;2022-12-10T17:37:35;5.61;78.37
73833;SHT30;62179;48.444;-4.464;2022-12-10T17:40:10;5.59;78.15
73833;SHT30;62179;48.444;-4.464;2022-12-10T17:42:36;5.55;77.84
73833;SHT30;62179;48.444;-4.464;2022-12-10T17:45:02;5.54;78.08
73833;SHT30;62179;48.444;-4.464;2022-12-10T17:47:27;5.48;78.18
73833;SHT30;62179;48.444;-4.464;2022-12-10T17:49:53;5.44;77.98
73833;SHT30;62179;48.444;-4.464;2022-12-10T17:52:19;5.38;78.38
73833;SHT30;62179;48.444;-4.464;2022-12-10T17:54:48;5.35;78.22
73833;SHT30;62179;48.444;-4.464;2022-12-10T17:57:18;5.32;78.33
73833;SHT30;62179;48.444;-4.464;2022-12-10T17:59:44;5.28;78.49
73833;SHT30;62179;48.444;-4.464;2022-12-10T18:02:10;5.30;79.45
73833;SHT30;62179;48.444;-4.464;2022-12-10T18:04:37;5.27;77.76
73833;SHT30;62179;48.444;-4.464;2022-12-10T18:07:07;5.27;79.93
73833;SHT30;62179;48.444;-4.464;2022-12-10T18:09:33;5.27;79.44
73833;SHT30;62179;48.444;-4.464;2022-12-10T18:11:59;5.26;79.80
73833;SHT30;62179;48.444;-4.464;2022-12-10T18:14:24;5.28;80.17
73833;SHT30;62179;48.444;-4.464;2022-12-10T18:16:50;5.28;81.06
73833;SHT30;62179;48.444;-4.464;2022-12-10T18:19:15;5.28;81.05
73833;SHT30;62179;48.444;-4.464;2022-12-10T18:21:41;5.26;81.16
73833;SHT30;62179;48.444;-4.464;2022-12-10T18:24:06;5.26;81.26
73833;SHT30;62179;48.444;-4.464;2022-12-10T18:26:33;5.24;81.63
73833;SHT30;62179;48.444;-4.464;2022-12-10T18:29:01;5.28;81.00
73833;SHT30;62179;48.444;-4.464;2022-12-10T18:31:34;5.30;80.85
73833;SHT30;62179;48.444;-4.464;2022-12-10T18:34:05;5.30;81.12
73833;SHT30;62179;48.444;-4.464;2022-12-10T18:36:35;5.27;81.18
73833;SHT30;62179;48.444;-4.464;2022-12-10T18:39:05;5.31;81.08
73833;SHT30;62179;48.444;-4.464;2022-12-10T18:41:30;5.31;81.00
73833;SHT30;62179;48.444;-4.464;2022-12-10T18:43:57;5.34;80.85
73833;SHT30;62179;48.444;-4.464;2022-12-10T18:46:25;5.34;80.67
73833;SHT30;62179;48.444;-4.464;2022-12-10T18:48:51;5.34;80.48
73833;SHT30;62179;48.444;-4.464;2022-12-10T18:51:19;5.41;80.52
73833;SHT30;62179;48.444;-4.464;2022-12-10T18:53:45;5.41;80.43
73833;SHT30;62179;48.444;-4.464;2022-12-10T18:56:16;5.42;80.36
73833;SHT30;62179;48.444;-4.464;2022-12-10T18:58:43;5.47;80.14
73833;SHT30;62179;48.444;-4.464;2022-12-10T19:01:10;5.51;80.08
73833;SHT30;62179;48.444;-4.464;2022-12-10T19:03:37;5.54;80.11
73833;SHT30;62179;48.444;-4.464;2022-12-10T19:06:04;5.58;79.76
73833;SHT30;62179;48.444;-4.464;2022-12-10T19:08:29;5.62;79.77
73833;SHT30;62179;48.444;-4.464;2022-12-10T19:10:56;5.68;79.22
73833;SHT30;62179;48.444;-4.464;2022-12-10T19:13:21;5.69;79.37
73833;SHT30;62179;48.444;-4.464;2022-12-10T19:15:47;5.73;79.37
73833;SHT30;62179;48.444;-4.464;2022-12-10T19:18:14;5.76;79.29
73833;SHT30;62179;48.444;-4.464;2022-12-10T19:20:41;5.78;78.95
73833;SHT30;62179;48.444;-4.464;2022-12-10T19:23:07;5.82;78.64
73833;SHT30;62179;48.444;-4.464;2022-12-10T19:25:33;5.78;78.82
73833;SHT30;62179;48.444;-4.464;2022-12-10T19:28:01;5.79;78.94
73833;SHT30;62179;48.444;-4.464;2022-12-10T19:30:28;5.80;78.80
73833;SHT30;62179;48.444;-4.464;2022-12-10T19:32:53;5.82;78.55
73833;SHT30;62179;48.444;-4.464;2022-12-10T19:35:23;5.85;78.28
73833;SHT30;62179;48.444;-4.464;2022-12-10T19:37:51;5.90;78.45
73833;SHT30;62179;48.444;-4.464;2022-12-10T19:42:41;5.88;78.90
73833;SHT30;62179;48.444;-4.464;2022-12-10T19:45:07;5.85;78.92
73833;SHT30;62179;48.444;-4.464;2022-12-10T19:47:33;5.85;79.04
73833;SHT30;62179;48.444;-4.464;2022-12-10T19:49:58;5.83;79.13
73833;SHT30;62179;48.444;-4.464;2022-12-10T19:52:24;5.86;79.24
73833;SHT30;62179;48.444;-4.464;2022-12-10T19:54:49;5.86;78.94
73833;SHT30;62179;48.444;-4.464;2022-12-10T19:57:15;5.86;78.94
73833;SHT30;62179;48.444;-4.464;2022-12-10T19:59:41;5.85;78.97
73833;SHT30;62179;48.444;-4.464;2022-12-10T20:02:08;5.86;78.66
73833;SHT30;62179;48.444;-4.464;2022-12-10T20:04:33;5.83;78.72
73833;SHT30;62179;48.444;-4.464;2022-12-10T20:06:59;5.80;78.76
73833;SHT30;62179;48.444;-4.464;2022-12-10T20:09:26;5.79;79.00
73833;SHT30;62179;48.444;-4.464;2022-12-10T20:11:52;5.76;78.97
73833;SHT30;62179;48.444;-4.464;2022-12-10T20:14:18;5.73;78.81
73833;SHT30;62179;48.444;-4.464;2022-12-10T20:16:44;5.72;78.57
73833;SHT30;62179;48.444;-4.464;2022-12-10T20:19:15;5.65;78.98
73833;SHT30;62179;48.444;-4.464;2022-12-10T20:21:41;5.66;79.32
73833;SHT30;62179;48.444;-4.464;2022-12-10T20:24:07;5.63;79.39
73833;SHT30;62179;48.444;-4.464;2022-12-10T20:26:41;5.62;79.23
73833;SHT30;62179;48.444;-4.464;2022-12-10T20:29:17;5.62;79.03
73833;SHT30;62179;48.444;-4.464;2022-12-10T20:31:47;5.63;79.31
73833;SHT30;62179;48.444;-4.464;2022-12-10T20:34:13;5.61;79.25
73833;SHT30;62179;48.444;-4.464;2022-12-10T20:36:39;5.65;79.42
73833;SHT30;62179;48.444;-4.464;2022-12-10T20:39:20;5.62;79.41
73833;SHT30;62179;48.444;-4.464;2022-12-10T20:41:49;5.65;79.27
73833;SHT30;62179;48.444;-4.464;2022-12-10T20:44:15;5.65;79.30
73833;SHT30;62179;48.444;-4.464;2022-12-10T20:46:42;5.63;79.30
73833;SHT30;62179;48.444;-4.464;2022-12-10T20:49:12;5.62;79.57
73833;SHT30;62179;48.444;-4.464;2022-12-10T20:51:37;5.66;79.59
73833;SHT30;62179;48.444;-4.464;2022-12-10T20:54:03;5.66;79.31
73833;SHT30;62179;48.444;-4.464;2022-12-10T20:56:29;5.66;79.91
73833;SHT30;62179;48.444;-4.464;2022-12-10T20:58:54;5.68;80.11
73833;SHT30;62179;48.444;-4.464;2022-12-10T21:01:21;5.69;80.34
73833;SHT30;62179;48.444;-4.464;2022-12-10T21:03:48;5.69;81.06
73833;SHT30;62179;48.444;-4.464;2022-12-10T21:06:17;5.75;81.22
73833;SHT30;62179;48.444;-4.464;2022-12-10T21:08:44;5.75;81.27
73833;SHT30;62179;48.444;-4.464;2022-12-10T21:11:11;5.76;81.61
73833;SHT30;62179;48.444;-4.464;2022-12-10T21:13:37;5.76;81.54
73833;SHT30;62179;48.444;-4.464;2022-12-10T21:16:03;5.78;82.09
73833;SHT30;62179;48.444;-4.464;2022-12-10T21:18:29;5.80;81.86
73833;SHT30;62179;48.444;-4.464;2022-12-10T21:20:55;5.79;82.04
73833;SHT30;62179;48.444;-4.464;2022-12-10T21:23:23;5.78;82.23
73833;SHT30;62179;48.444;-4.464;2022-12-10T21:25:52;5.80;81.77
73833;SHT30;62179;48.444;-4.464;2022-12-10T21:28:19;5.78;82.11
73833;SHT30;62179;48.444;-4.464;2022-12-10T21:30:44;5.79;82.44
73833;SHT30;62179;48.444;-4.464;2022-12-10T21:33:13;5.82;82.83
73833;SHT30;62179;48.444;-4.464;2022-12-10T21:35:39;5.80;83.58
73833;SHT30;62179;48.444;-4.464;2022-12-10T21:38:04;5.79;83.34
73833;SHT30;62179;48.444;-4.464;2022-12-10T21:40:32;5.82;83.35
73833;SHT30;62179;48.444;-4.464;2022-12-10T21:42:58;5.79;83.90
73833;SHT30;62179;48.444;-4.464;2022-12-10T21:45:47;5.80;83.87
73833;SHT30;62179;48.444;-4.464;2022-12-10T21:48:16;5.82;84.76
73833;SHT30;62179;48.444;-4.464;2022-12-10T21:50:45;5.86;85.14
73833;SHT30;62179;48.444;-4.464;2022-12-10T21:53:13;5.85;84.63
73833;SHT30;62179;48.444;-4.464;2022-12-10T21:55:40;5.83;84.90
73833;SHT30;62179;48.444;-4.464;2022-12-10T21:58:10;5.85;85.15
